首页
METAR-TAF:

METAR-TAF

机场 :

Rutland Southern Vermont Regional Airport

拉特蘭, 佛蒙特州, 美国

纬度: 43-32N, 经度: 072-57W, 海拔: 240米

当前天气观测

该预报发布于9分钟前的08:56 UTC
风速3节,风向东转东南
温度 13°C
湿度 100%
气压 1019 hPa
能見度: 16.1公里
天空无云

METAR: KRUT 220856Z AUTO 12003KT 10SM CLR 13/13 A3010 RMK AO2 SLP186 T01330128 55004 $

时间: 05:05 (09:05 UTC)

预报

该预报发布于3小时和42分钟前的05:23 UTC
预报有效从22日的 06点(UTC)到 23日的 06点(UTC)
风速8节,风向东转东南
能見度: 10公里
多云层高于25000英尺
从 22日的 1400点(UTC)
风速5节,风向西南
能見度: 10公里
多云层高于20000英尺
从 23日的 0200点(UTC)
风速7节,风向东转东南
能見度: 10公里
多云层高于10000英尺

TAF: KRUT 220523Z 2206/2306 12008KT P6SM BKN250 FM221400 23005KT P6SM BKN200 FM230200 12007KT P6SM BKN100

超过4000个机场的气象观测和天气预报(METAR&TAF报告)。

可查询的气象台以黄色和红色小点在地图上表示。

将鼠标移到小点上方,可查看气象台名称。

然后点击查看天气观测和预报。

如需切换地图:点击带黑十字的绿色按钮放大地图;点击带横线的绿色按钮缩小地图;或者点击绿色箭头查看邻近地区的地图。


METAR-TAF: